sensor_id;sensor_type;location;lat;lon;timestamp;P1;durP1;ratioP1;P2;durP2;ratioP2
33104;SDS011;19476;51.448;6.674;2023-05-16T00:01:09;3.38;;;0.70;;
33104;SDS011;19476;51.448;6.674;2023-05-16T00:03:37;1.50;;;0.60;;
33104;SDS011;19476;51.448;6.674;2023-05-16T00:06:02;3.60;;;0.93;;
33104;SDS011;19476;51.448;6.674;2023-05-16T00:08:29;2.47;;;0.82;;
33104;SDS011;19476;51.448;6.674;2023-05-16T00:10:55;1.85;;;0.50;;
33104;SDS011;19476;51.448;6.674;2023-05-16T00:13:21;2.30;;;0.47;;
33104;SDS011;19476;51.448;6.674;2023-05-16T00:15:49;2.95;;;1.00;;
33104;SDS011;19476;51.448;6.674;2023-05-16T00:18:16;1.17;;;0.50;;
33104;SDS011;19476;51.448;6.674;2023-05-16T00:20:43;5.18;;;0.82;;
33104;SDS011;19476;51.448;6.674;2023-05-16T00:23:09;2.35;;;0.50;;
33104;SDS011;19476;51.448;6.674;2023-05-16T00:25:37;4.03;;;0.70;;
33104;SDS011;19476;51.448;6.674;2023-05-16T00:28:02;4.40;;;0.90;;
33104;SDS011;19476;51.448;6.674;2023-05-16T00:30:28;1.88;;;0.50;;
33104;SDS011;19476;51.448;6.674;2023-05-16T00:32:54;1.10;;;0.70;;
33104;SDS011;19476;51.448;6.674;2023-05-16T00:35:20;1.40;;;0.75;;
33104;SDS011;19476;51.448;6.674;2023-05-16T00:37:46;2.63;;;0.73;;
33104;SDS011;19476;51.448;6.674;2023-05-16T00:40:12;1.85;;;0.60;;
33104;SDS011;19476;51.448;6.674;2023-05-16T00:42:38;2.33;;;0.75;;
33104;SDS011;19476;51.448;6.674;2023-05-16T00:45:04;3.60;;;0.90;;
33104;SDS011;19476;51.448;6.674;2023-05-16T00:47:31;2.63;;;1.08;;
33104;SDS011;19476;51.448;6.674;2023-05-16T00:49:57;3.33;;;1.20;;
33104;SDS011;19476;51.448;6.674;2023-05-16T00:52:23;2.65;;;0.90;;
33104;SDS011;19476;51.448;6.674;2023-05-16T00:54:49;4.22;;;0.95;;
33104;SDS011;19476;51.448;6.674;2023-05-16T00:57:16;2.20;;;0.77;;
33104;SDS011;19476;51.448;6.674;2023-05-16T00:59:43;3.72;;;0.88;;
33104;SDS011;19476;51.448;6.674;2023-05-16T01:02:10;2.78;;;0.88;;
33104;SDS011;19476;51.448;6.674;2023-05-16T01:04:37;5.15;;;0.90;;
33104;SDS011;19476;51.448;6.674;2023-05-16T01:07:03;2.83;;;0.60;;
33104;SDS011;19476;51.448;6.674;2023-05-16T01:09:29;3.42;;;0.70;;
33104;SDS011;19476;51.448;6.674;2023-05-16T01:12:00;2.78;;;0.70;;
33104;SDS011;19476;51.448;6.674;2023-05-16T01:22:40;3.45;;;1.00;;
33104;SDS011;19476;51.448;6.674;2023-05-16T01:28:17;3.83;;;0.68;;
33104;SDS011;19476;51.448;6.674;2023-05-16T01:30:44;4.35;;;0.63;;
33104;SDS011;19476;51.448;6.674;2023-05-16T01:33:10;3.42;;;0.98;;
33104;SDS011;19476;51.448;6.674;2023-05-16T01:35:38;3.42;;;0.90;;
33104;SDS011;19476;51.448;6.674;2023-05-16T01:43:16;4.63;;;0.83;;
33104;SDS011;19476;51.448;6.674;2023-05-16T01:45:50;5.22;;;1.27;;
33104;SDS011;19476;51.448;6.674;2023-05-16T01:48:22;2.58;;;0.98;;
33104;SDS011;19476;51.448;6.674;2023-05-16T01:50:54;6.40;;;1.35;;
33104;SDS011;19476;51.448;6.674;2023-05-16T01:53:26;3.88;;;0.90;;
33104;SDS011;19476;51.448;6.674;2023-05-16T01:55:56;2.15;;;0.98;;
33104;SDS011;19476;51.448;6.674;2023-05-16T01:58:25;6.95;;;1.30;;
33104;SDS011;19476;51.448;6.674;2023-05-16T02:00:58;7.00;;;1.60;;
33104;SDS011;19476;51.448;6.674;2023-05-16T02:03:31;5.60;;;1.27;;
33104;SDS011;19476;51.448;6.674;2023-05-16T02:05:58;3.47;;;1.17;;
33104;SDS011;19476;51.448;6.674;2023-05-16T02:08:23;7.53;;;1.77;;
33104;SDS011;19476;51.448;6.674;2023-05-16T02:10:50;6.03;;;1.20;;
33104;SDS011;19476;51.448;6.674;2023-05-16T02:13:16;5.70;;;1.80;;
33104;SDS011;19476;51.448;6.674;2023-05-16T02:15:42;7.30;;;1.30;;
33104;SDS011;19476;51.448;6.674;2023-05-16T02:18:08;6.03;;;1.30;;
33104;SDS011;19476;51.448;6.674;2023-05-16T02:20:35;6.60;;;1.30;;
33104;SDS011;19476;51.448;6.674;2023-05-16T02:23:00;6.95;;;1.48;;
33104;SDS011;19476;51.448;6.674;2023-05-16T02:25:27;4.15;;;1.40;;
33104;SDS011;19476;51.448;6.674;2023-05-16T02:27:53;6.35;;;1.63;;
33104;SDS011;19476;51.448;6.674;2023-05-16T02:30:19;4.65;;;1.30;;
33104;SDS011;19476;51.448;6.674;2023-05-16T02:32:45;7.88;;;1.20;;
33104;SDS011;19476;51.448;6.674;2023-05-16T02:35:12;4.68;;;1.20;;
33104;SDS011;19476;51.448;6.674;2023-05-16T02:37:39;5.88;;;1.48;;
33104;SDS011;19476;51.448;6.674;2023-05-16T02:40:05;10.25;;;1.75;;
33104;SDS011;19476;51.448;6.674;2023-05-16T02:42:32;7.07;;;1.23;;
33104;SDS011;19476;51.448;6.674;2023-05-16T02:44:58;6.85;;;1.38;;
33104;SDS011;19476;51.448;6.674;2023-05-16T02:47:24;5.38;;;1.13;;
33104;SDS011;19476;51.448;6.674;2023-05-16T02:49:50;7.30;;;1.52;;
33104;SDS011;19476;51.448;6.674;2023-05-16T02:52:18;6.43;;;1.60;;
33104;SDS011;19476;51.448;6.674;2023-05-16T02:54:44;4.75;;;1.10;;
33104;SDS011;19476;51.448;6.674;2023-05-16T02:57:10;5.80;;;1.13;;
33104;SDS011;19476;51.448;6.674;2023-05-16T02:59:36;4.30;;;1.48;;
33104;SDS011;19476;51.448;6.674;2023-05-16T03:02:03;6.57;;;1.85;;
33104;SDS011;19476;51.448;6.674;2023-05-16T03:04:28;7.63;;;1.52;;
33104;SDS011;19476;51.448;6.674;2023-05-16T03:06:54;3.63;;;0.82;;
33104;SDS011;19476;51.448;6.674;2023-05-16T03:09:20;4.18;;;0.93;;
33104;SDS011;19476;51.448;6.674;2023-05-16T03:11:46;5.43;;;1.33;;
33104;SDS011;19476;51.448;6.674;2023-05-16T03:14:12;5.78;;;1.60;;
33104;SDS011;19476;51.448;6.674;2023-05-16T03:16:38;5.25;;;0.82;;
33104;SDS011;19476;51.448;6.674;2023-05-16T03:19:07;4.45;;;0.65;;
33104;SDS011;19476;51.448;6.674;2023-05-16T03:21:33;7.05;;;1.10;;
33104;SDS011;19476;51.448;6.674;2023-05-16T03:23:59;2.85;;;1.20;;
33104;SDS011;19476;51.448;6.674;2023-05-16T03:26:26;8.77;;;0.98;;
33104;SDS011;19476;51.448;6.674;2023-05-16T03:28:51;5.95;;;1.00;;
33104;SDS011;19476;51.448;6.674;2023-05-16T03:31:17;9.05;;;1.17;;
33104;SDS011;19476;51.448;6.674;2023-05-16T03:33:43;4.47;;;0.82;;
33104;SDS011;19476;51.448;6.674;2023-05-16T03:36:09;3.53;;;0.90;;
33104;SDS011;19476;51.448;6.674;2023-05-16T03:38:35;5.65;;;0.75;;
33104;SDS011;19476;51.448;6.674;2023-05-16T03:41:01;3.55;;;0.77;;
33104;SDS011;19476;51.448;6.674;2023-05-16T03:43:27;6.85;;;1.15;;
33104;SDS011;19476;51.448;6.674;2023-05-16T03:45:53;3.03;;;0.60;;
33104;SDS011;19476;51.448;6.674;2023-05-16T03:48:20;9.43;;;1.65;;
33104;SDS011;19476;51.448;6.674;2023-05-16T03:50:46;8.40;;;1.00;;
33104;SDS011;19476;51.448;6.674;2023-05-16T03:53:12;3.40;;;0.77;;
33104;SDS011;19476;51.448;6.674;2023-05-16T03:55:38;5.82;;;0.73;;
33104;SDS011;19476;51.448;6.674;2023-05-16T03:58:04;4.88;;;1.40;;
33104;SDS011;19476;51.448;6.674;2023-05-16T04:00:30;6.70;;;1.20;;
33104;SDS011;19476;51.448;6.674;2023-05-16T04:02:56;6.13;;;1.15;;
33104;SDS011;19476;51.448;6.674;2023-05-16T04:05:21;6.43;;;1.02;;
33104;SDS011;19476;51.448;6.674;2023-05-16T04:07:47;3.58;;;0.90;;
33104;SDS011;19476;51.448;6.674;2023-05-16T04:10:13;5.97;;;1.30;;
33104;SDS011;19476;51.448;6.674;2023-05-16T04:12:39;3.63;;;0.80;;
33104;SDS011;19476;51.448;6.674;2023-05-16T04:15:05;6.20;;;0.98;;
33104;SDS011;19476;51.448;6.674;2023-05-16T04:17:32;3.65;;;0.90;;
33104;SDS011;19476;51.448;6.674;2023-05-16T04:19:58;4.43;;;0.93;;
33104;SDS011;19476;51.448;6.674;2023-05-16T04:22:24;4.95;;;0.90;;
33104;SDS011;19476;51.448;6.674;2023-05-16T04:24:50;4.30;;;0.60;;
33104;SDS011;19476;51.448;6.674;2023-05-16T04:27:16;2.80;;;0.70;;
33104;SDS011;19476;51.448;6.674;2023-05-16T04:29:42;4.90;;;0.90;;
33104;SDS011;19476;51.448;6.674;2023-05-16T04:32:08;6.88;;;1.05;;
33104;SDS011;19476;51.448;6.674;2023-05-16T04:34:35;4.47;;;0.93;;
33104;SDS011;19476;51.448;6.674;2023-05-16T04:37:02;4.85;;;0.95;;
33104;SDS011;19476;51.448;6.674;2023-05-16T04:39:29;3.65;;;0.68;;
33104;SDS011;19476;51.448;6.674;2023-05-16T04:41:55;2.90;;;0.50;;
33104;SDS011;19476;51.448;6.674;2023-05-16T04:44:23;4.32;;;0.60;;
33104;SDS011;19476;51.448;6.674;2023-05-16T04:46:52;3.17;;;0.98;;
33104;SDS011;19476;51.448;6.674;2023-05-16T04:49:18;7.38;;;1.35;;
33104;SDS011;19476;51.448;6.674;2023-05-16T04:51:45;4.93;;;0.80;;
33104;SDS011;19476;51.448;6.674;2023-05-16T04:54:11;3.45;;;1.05;;
33104;SDS011;19476;51.448;6.674;2023-05-16T04:56:37;4.22;;;1.00;;
33104;SDS011;19476;51.448;6.674;2023-05-16T04:59:03;5.30;;;0.63;;
33104;SDS011;19476;51.448;6.674;2023-05-16T05:01:29;4.55;;;0.80;;
33104;SDS011;19476;51.448;6.674;2023-05-16T05:03:55;4.22;;;1.00;;
33104;SDS011;19476;51.448;6.674;2023-05-16T05:06:21;4.47;;;1.10;;
33104;SDS011;19476;51.448;6.674;2023-05-16T05:08:47;4.88;;;1.38;;
33104;SDS011;19476;51.448;6.674;2023-05-16T05:11:13;5.55;;;0.70;;
33104;SDS011;19476;51.448;6.674;2023-05-16T05:13:39;3.60;;;0.80;;
33104;SDS011;19476;51.448;6.674;2023-05-16T05:16:05;4.45;;;0.77;;
33104;SDS011;19476;51.448;6.674;2023-05-16T05:18:31;4.18;;;1.02;;
33104;SDS011;19476;51.448;6.674;2023-05-16T05:20:57;6.40;;;1.08;;
33104;SDS011;19476;51.448;6.674;2023-05-16T05:23:23;4.43;;;1.13;;
33104;SDS011;19476;51.448;6.674;2023-05-16T05:25:49;5.80;;;1.10;;
33104;SDS011;19476;51.448;6.674;2023-05-16T05:28:15;9.48;;;1.25;;
33104;SDS011;19476;51.448;6.674;2023-05-16T05:30:40;4.05;;;0.75;;
33104;SDS011;19476;51.448;6.674;2023-05-16T05:33:06;7.05;;;1.27;;
33104;SDS011;19476;51.448;6.674;2023-05-16T05:35:32;4.35;;;1.17;;
33104;SDS011;19476;51.448;6.674;2023-05-16T05:37:58;5.28;;;0.90;;
33104;SDS011;19476;51.448;6.674;2023-05-16T05:40:24;4.88;;;0.80;;
33104;SDS011;19476;51.448;6.674;2023-05-16T05:42:50;4.55;;;0.98;;
33104;SDS011;19476;51.448;6.674;2023-05-16T05:45:15;4.65;;;0.90;;
33104;SDS011;19476;51.448;6.674;2023-05-16T05:47:42;7.65;;;1.17;;
33104;SDS011;19476;51.448;6.674;2023-05-16T05:50:08;6.30;;;1.10;;
33104;SDS011;19476;51.448;6.674;2023-05-16T05:52:35;3.85;;;0.95;;
33104;SDS011;19476;51.448;6.674;2023-05-16T05:55:02;5.35;;;1.13;;
33104;SDS011;19476;51.448;6.674;2023-05-16T05:57:28;6.38;;;1.02;;
33104;SDS011;19476;51.448;6.674;2023-05-16T05:59:55;5.60;;;1.05;;
33104;SDS011;19476;51.448;6.674;2023-05-16T06:02:20;5.13;;;0.90;;
33104;SDS011;19476;51.448;6.674;2023-05-16T06:04:46;3.95;;;0.98;;
33104;SDS011;19476;51.448;6.674;2023-05-16T06:07:12;5.28;;;1.02;;
33104;SDS011;19476;51.448;6.674;2023-05-16T06:09:40;4.90;;;1.00;;
33104;SDS011;19476;51.448;6.674;2023-05-16T06:12:07;3.13;;;0.73;;
33104;SDS011;19476;51.448;6.674;2023-05-16T06:14:33;4.88;;;1.25;;
33104;SDS011;19476;51.448;6.674;2023-05-16T06:16:59;4.40;;;1.02;;
33104;SDS011;19476;51.448;6.674;2023-05-16T06:19:25;3.67;;;0.77;;
33104;SDS011;19476;51.448;6.674;2023-05-16T06:21:51;6.57;;;1.02;;
33104;SDS011;19476;51.448;6.674;2023-05-16T06:24:17;5.85;;;1.10;;
33104;SDS011;19476;51.448;6.674;2023-05-16T06:26:42;9.60;;;1.48;;
33104;SDS011;19476;51.448;6.674;2023-05-16T06:29:13;5.18;;;1.00;;
33104;SDS011;19476;51.448;6.674;2023-05-16T06:31:39;3.80;;;0.90;;
33104;SDS011;19476;51.448;6.674;2023-05-16T06:34:05;6.35;;;1.00;;
33104;SDS011;19476;51.448;6.674;2023-05-16T06:36:31;5.15;;;1.05;;
33104;SDS011;19476;51.448;6.674;2023-05-16T06:38:56;6.75;;;1.23;;
33104;SDS011;19476;51.448;6.674;2023-05-16T06:41:22;5.60;;;1.13;;
33104;SDS011;19476;51.448;6.674;2023-05-16T06:43:48;5.28;;;0.98;;
33104;SDS011;19476;51.448;6.674;2023-05-16T06:46:14;4.75;;;0.98;;
33104;SDS011;19476;51.448;6.674;2023-05-16T06:48:39;5.47;;;1.23;;
33104;SDS011;19476;51.448;6.674;2023-05-16T06:51:05;5.40;;;0.95;;
33104;SDS011;19476;51.448;6.674;2023-05-16T06:53:32;3.20;;;0.73;;
33104;SDS011;19476;51.448;6.674;2023-05-16T06:55:59;3.20;;;0.90;;
33104;SDS011;19476;51.448;6.674;2023-05-16T06:58:25;4.78;;;0.60;;
33104;SDS011;19476;51.448;6.674;2023-05-16T07:00:52;7.20;;;0.95;;
33104;SDS011;19476;51.448;6.674;2023-05-16T07:03:20;6.20;;;1.25;;
33104;SDS011;19476;51.448;6.674;2023-05-16T07:05:47;3.10;;;0.90;;
33104;SDS011;19476;51.448;6.674;2023-05-16T07:08:15;5.78;;;1.05;;
33104;SDS011;19476;51.448;6.674;2023-05-16T07:10:41;2.80;;;0.93;;
33104;SDS011;19476;51.448;6.674;2023-05-16T07:13:07;5.03;;;0.80;;
33104;SDS011;19476;51.448;6.674;2023-05-16T07:15:33;3.40;;;0.73;;
33104;SDS011;19476;51.448;6.674;2023-05-16T07:17:59;4.18;;;0.88;;
33104;SDS011;19476;51.448;6.674;2023-05-16T07:20:24;3.22;;;0.73;;
33104;SDS011;19476;51.448;6.674;2023-05-16T07:22:50;2.85;;;0.50;;
33104;SDS011;19476;51.448;6.674;2023-05-16T07:25:16;4.22;;;0.70;;
33104;SDS011;19476;51.448;6.674;2023-05-16T07:27:43;1.83;;;0.50;;
33104;SDS011;19476;51.448;6.674;2023-05-16T07:30:10;4.35;;;0.52;;
33104;SDS011;19476;51.448;6.674;2023-05-16T07:32:37;3.33;;;1.10;;
33104;SDS011;19476;51.448;6.674;2023-05-16T07:35:03;2.45;;;0.60;;
33104;SDS011;19476;51.448;6.674;2023-05-16T07:37:29;5.00;;;0.70;;
33104;SDS011;19476;51.448;6.674;2023-05-16T07:39:58;6.95;;;1.20;;
33104;SDS011;19476;51.448;6.674;2023-05-16T07:42:24;3.00;;;0.70;;
33104;SDS011;19476;51.448;6.674;2023-05-16T07:44:50;4.13;;;0.90;;
33104;SDS011;19476;51.448;6.674;2023-05-16T07:47:16;2.47;;;0.50;;
33104;SDS011;19476;51.448;6.674;2023-05-16T07:49:41;4.40;;;1.00;;
33104;SDS011;19476;51.448;6.674;2023-05-16T07:52:07;3.63;;;0.70;;
33104;SDS011;19476;51.448;6.674;2023-05-16T07:54:33;3.65;;;0.77;;
33104;SDS011;19476;51.448;6.674;2023-05-16T07:57:00;4.38;;;1.13;;
33104;SDS011;19476;51.448;6.674;2023-05-16T07:59:27;2.55;;;0.60;;
33104;SDS011;19476;51.448;6.674;2023-05-16T08:01:53;4.70;;;0.65;;
33104;SDS011;19476;51.448;6.674;2023-05-16T08:04:19;3.30;;;0.50;;
33104;SDS011;19476;51.448;6.674;2023-05-16T08:06:46;2.97;;;0.90;;
33104;SDS011;19476;51.448;6.674;2023-05-16T08:09:11;2.85;;;0.70;;
33104;SDS011;19476;51.448;6.674;2023-05-16T08:11:37;2.90;;;0.52;;
33104;SDS011;19476;51.448;6.674;2023-05-16T08:14:04;3.80;;;0.70;;
33104;SDS011;19476;51.448;6.674;2023-05-16T08:16:30;5.63;;;1.02;;
33104;SDS011;19476;51.448;6.674;2023-05-16T08:18:56;3.45;;;0.90;;
33104;SDS011;19476;51.448;6.674;2023-05-16T08:21:22;2.78;;;0.60;;
33104;SDS011;19476;51.448;6.674;2023-05-16T08:23:48;6.22;;;1.00;;
33104;SDS011;19476;51.448;6.674;2023-05-16T08:26:15;3.70;;;1.02;;
33104;SDS011;19476;51.448;6.674;2023-05-16T08:28:42;2.47;;;0.50;;
33104;SDS011;19476;51.448;6.674;2023-05-16T08:31:08;4.78;;;0.77;;
33104;SDS011;19476;51.448;6.674;2023-05-16T08:33:33;2.85;;;0.70;;
33104;SDS011;19476;51.448;6.674;2023-05-16T08:36:00;5.00;;;0.93;;
33104;SDS011;19476;51.448;6.674;2023-05-16T08:38:26;2.25;;;0.60;;
33104;SDS011;19476;51.448;6.674;2023-05-16T08:40:52;3.13;;;0.75;;
33104;SDS011;19476;51.448;6.674;2023-05-16T08:43:17;1.52;;;0.63;;
33104;SDS011;19476;51.448;6.674;2023-05-16T08:45:44;1.55;;;0.75;;
33104;SDS011;19476;51.448;6.674;2023-05-16T08:48:10;3.33;;;0.55;;
33104;SDS011;19476;51.448;6.674;2023-05-16T08:50:36;2.33;;;0.50;;
33104;SDS011;19476;51.448;6.674;2023-05-16T08:53:06;3.17;;;0.73;;
33104;SDS011;19476;51.448;6.674;2023-05-16T08:55:33;2.38;;;0.70;;
33104;SDS011;19476;51.448;6.674;2023-05-16T08:58:01;1.95;;;0.70;;
33104;SDS011;19476;51.448;6.674;2023-05-16T09:00:28;3.45;;;0.98;;
33104;SDS011;19476;51.448;6.674;2023-05-16T09:02:55;4.15;;;0.80;;
33104;SDS011;19476;51.448;6.674;2023-05-16T09:05:22;3.67;;;0.90;;
33104;SDS011;19476;51.448;6.674;2023-05-16T09:07:48;3.58;;;0.90;;
33104;SDS011;19476;51.448;6.674;2023-05-16T09:10:14;1.70;;;0.60;;
33104;SDS011;19476;51.448;6.674;2023-05-16T09:12:41;2.50;;;0.60;;
33104;SDS011;19476;51.448;6.674;2023-05-16T09:15:08;2.80;;;0.50;;
33104;SDS011;19476;51.448;6.674;2023-05-16T09:17:38;5.72;;;0.85;;
33104;SDS011;19476;51.448;6.674;2023-05-16T09:22:39;3.17;;;0.70;;
33104;SDS011;19476;51.448;6.674;2023-05-16T09:25:15;5.85;;;0.75;;
33104;SDS011;19476;51.448;6.674;2023-05-16T09:27:41;2.15;;;0.45;;
33104;SDS011;19476;51.448;6.674;2023-05-16T09:30:07;1.70;;;0.50;;
33104;SDS011;19476;51.448;6.674;2023-05-16T09:32:33;2.70;;;0.70;;
33104;SDS011;19476;51.448;6.674;2023-05-16T09:34:59;6.00;;;1.27;;
33104;SDS011;19476;51.448;6.674;2023-05-16T09:37:25;2.67;;;0.50;;
33104;SDS011;19476;51.448;6.674;2023-05-16T09:39:52;1.92;;;0.50;;
33104;SDS011;19476;51.448;6.674;2023-05-16T09:42:21;3.28;;;0.65;;
33104;SDS011;19476;51.448;6.674;2023-05-16T09:44:51;2.47;;;0.70;;
33104;SDS011;19476;51.448;6.674;2023-05-16T09:47:18;2.13;;;0.68;;
33104;SDS011;19476;51.448;6.674;2023-05-16T09:49:46;4.10;;;0.70;;
33104;SDS011;19476;51.448;6.674;2023-05-16T09:52:15;3.25;;;0.80;;
33104;SDS011;19476;51.448;6.674;2023-05-16T09:54:41;3.50;;;0.80;;
33104;SDS011;19476;51.448;6.674;2023-05-16T09:57:07;3.42;;;0.70;;
33104;SDS011;19476;51.448;6.674;2023-05-16T09:59:35;2.90;;;0.85;;
33104;SDS011;19476;51.448;6.674;2023-05-16T10:02:02;2.25;;;0.63;;
33104;SDS011;19476;51.448;6.674;2023-05-16T10:04:30;4.10;;;0.63;;
33104;SDS011;19476;51.448;6.674;2023-05-16T10:06:56;3.83;;;0.65;;
33104;SDS011;19476;51.448;6.674;2023-05-16T10:09:23;5.50;;;1.00;;
33104;SDS011;19476;51.448;6.674;2023-05-16T10:11:50;3.03;;;0.85;;
33104;SDS011;19476;51.448;6.674;2023-05-16T10:14:19;1.65;;;0.45;;
33104;SDS011;19476;51.448;6.674;2023-05-16T10:16:47;3.90;;;0.73;;
33104;SDS011;19476;51.448;6.674;2023-05-16T10:19:16;2.40;;;0.70;;
33104;SDS011;19476;51.448;6.674;2023-05-16T10:21:47;2.92;;;0.73;;
33104;SDS011;19476;51.448;6.674;2023-05-16T10:24:19;4.13;;;0.68;;
33104;SDS011;19476;51.448;6.674;2023-05-16T10:26:50;1.33;;;0.63;;
33104;SDS011;19476;51.448;6.674;2023-05-16T10:29:16;1.40;;;0.50;;
33104;SDS011;19476;51.448;6.674;2023-05-16T10:31:43;2.28;;;0.50;;
33104;SDS011;19476;51.448;6.674;2023-05-16T10:34:10;2.67;;;0.73;;
33104;SDS011;19476;51.448;6.674;2023-05-16T10:36:37;1.27;;;0.55;;
33104;SDS011;19476;51.448;6.674;2023-05-16T10:39:03;3.03;;;0.77;;
33104;SDS011;19476;51.448;6.674;2023-05-16T10:41:30;4.13;;;0.70;;
33104;SDS011;19476;51.448;6.674;2023-05-16T10:43:58;1.45;;;0.60;;
33104;SDS011;19476;51.448;6.674;2023-05-16T10:46:25;3.15;;;0.60;;
33104;SDS011;19476;51.448;6.674;2023-05-16T10:48:53;1.97;;;0.40;;
33104;SDS011;19476;51.448;6.674;2023-05-16T10:53:51;1.95;;;0.52;;
33104;SDS011;19476;51.448;6.674;2023-05-16T10:56:22;1.75;;;0.45;;
33104;SDS011;19476;51.448;6.674;2023-05-16T10:58:49;1.55;;;0.30;;
33104;SDS011;19476;51.448;6.674;2023-05-16T11:14:20;1.30;;;0.40;;
33104;SDS011;19476;51.448;6.674;2023-05-16T11:16:51;1.40;;;0.32;;
33104;SDS011;19476;51.448;6.674;2023-05-16T11:19:34;1.90;;;0.30;;
33104;SDS011;19476;51.448;6.674;2023-05-16T11:24:48;2.05;;;0.43;;
33104;SDS011;19476;51.448;6.674;2023-05-16T11:27:31;1.77;;;0.38;;
33104;SDS011;19476;51.448;6.674;2023-05-16T11:32:32;1.23;;;0.38;;
33104;SDS011;19476;51.448;6.674;2023-05-16T11:34:59;1.65;;;0.40;;
33104;SDS011;19476;51.448;6.674;2023-05-16T11:37:26;1.65;;;0.40;;
33104;SDS011;19476;51.448;6.674;2023-05-16T11:39:52;4.18;;;0.80;;
33104;SDS011;19476;51.448;6.674;2023-05-16T11:42:29;2.90;;;0.55;;
33104;SDS011;19476;51.448;6.674;2023-05-16T11:45:11;2.67;;;0.60;;
33104;SDS011;19476;51.448;6.674;2023-05-16T11:47:49;2.22;;;0.35;;
33104;SDS011;19476;51.448;6.674;2023-05-16T11:50:15;2.72;;;0.52;;
33104;SDS011;19476;51.448;6.674;2023-05-16T11:52:44;2.80;;;0.43;;
33104;SDS011;19476;51.448;6.674;2023-05-16T11:55:21;2.90;;;0.40;;
33104;SDS011;19476;51.448;6.674;2023-05-16T11:57:50;1.65;;;0.38;;
33104;SDS011;19476;51.448;6.674;2023-05-16T12:00:17;4.07;;;0.38;;
33104;SDS011;19476;51.448;6.674;2023-05-16T12:02:45;1.20;;;0.50;;
33104;SDS011;19476;51.448;6.674;2023-05-16T12:05:12;0.98;;;0.50;;
33104;SDS011;19476;51.448;6.674;2023-05-16T12:07:39;1.20;;;0.30;;
33104;SDS011;19476;51.448;6.674;2023-05-16T12:10:09;2.65;;;0.43;;
33104;SDS011;19476;51.448;6.674;2023-05-16T12:12:37;1.88;;;0.70;;
33104;SDS011;19476;51.448;6.674;2023-05-16T12:15:06;2.08;;;0.50;;
33104;SDS011;19476;51.448;6.674;2023-05-16T12:17:50;0.85;;;0.35;;
33104;SDS011;19476;51.448;6.674;2023-05-16T12:20:16;1.70;;;0.50;;
33104;SDS011;19476;51.448;6.674;2023-05-16T12:22:43;1.33;;;0.43;;
33104;SDS011;19476;51.448;6.674;2023-05-16T12:25:29;1.05;;;0.30;;
33104;SDS011;19476;51.448;6.674;2023-05-16T12:27:57;1.08;;;0.30;;
33104;SDS011;19476;51.448;6.674;2023-05-16T12:30:26;0.63;;;0.30;;
33104;SDS011;19476;51.448;6.674;2023-05-16T12:33:01;1.00;;;0.38;;
33104;SDS011;19476;51.448;6.674;2023-05-16T12:35:36;0.77;;;0.25;;
33104;SDS011;19476;51.448;6.674;2023-05-16T12:38:04;1.65;;;0.30;;
33104;SDS011;19476;51.448;6.674;2023-05-16T12:40:43;0.88;;;0.40;;
33104;SDS011;19476;51.448;6.674;2023-05-16T12:45:39;1.10;;;0.25;;
33104;SDS011;19476;51.448;6.674;2023-05-16T12:48:15;0.40;;;0.30;;
33104;SDS011;19476;51.448;6.674;2023-05-16T12:50:41;2.08;;;0.55;;
33104;SDS011;19476;51.448;6.674;2023-05-16T12:53:16;1.08;;;0.32;;
33104;SDS011;19476;51.448;6.674;2023-05-16T12:55:43;2.63;;;0.45;;
33104;SDS011;19476;51.448;6.674;2023-05-16T12:58:10;1.75;;;0.40;;
33104;SDS011;19476;51.448;6.674;2023-05-16T13:00:36;1.88;;;0.38;;
33104;SDS011;19476;51.448;6.674;2023-05-16T13:03:03;2.40;;;0.50;;
33104;SDS011;19476;51.448;6.674;2023-05-16T13:05:30;2.75;;;0.65;;
33104;SDS011;19476;51.448;6.674;2023-05-16T13:07:56;3.65;;;0.60;;
33104;SDS011;19476;51.448;6.674;2023-05-16T13:10:22;1.55;;;0.40;;
33104;SDS011;19476;51.448;6.674;2023-05-16T13:12:49;4.32;;;0.50;;
33104;SDS011;19476;51.448;6.674;2023-05-16T13:15:15;1.45;;;0.40;;
33104;SDS011;19476;51.448;6.674;2023-05-16T13:17:42;2.70;;;0.55;;
33104;SDS011;19476;51.448;6.674;2023-05-16T13:20:11;2.03;;;0.50;;
33104;SDS011;19476;51.448;6.674;2023-05-16T13:22:39;3.15;;;0.70;;
33104;SDS011;19476;51.448;6.674;2023-05-16T13:25:05;2.35;;;0.65;;
33104;SDS011;19476;51.448;6.674;2023-05-16T13:27:32;1.75;;;0.60;;
33104;SDS011;19476;51.448;6.674;2023-05-16T13:29:58;2.25;;;0.57;;
33104;SDS011;19476;51.448;6.674;2023-05-16T13:32:24;1.13;;;0.40;;
33104;SDS011;19476;51.448;6.674;2023-05-16T13:34:51;2.97;;;0.80;;
33104;SDS011;19476;51.448;6.674;2023-05-16T13:37:17;2.58;;;0.60;;
33104;SDS011;19476;51.448;6.674;2023-05-16T13:39:43;2.85;;;0.70;;
33104;SDS011;19476;51.448;6.674;2023-05-16T13:42:09;3.92;;;0.70;;
33104;SDS011;19476;51.448;6.674;2023-05-16T13:44:35;2.22;;;0.50;;
33104;SDS011;19476;51.448;6.674;2023-05-16T13:47:01;3.15;;;0.90;;
33104;SDS011;19476;51.448;6.674;2023-05-16T13:49:28;1.92;;;0.70;;
33104;SDS011;19476;51.448;6.674;2023-05-16T13:51:54;2.85;;;0.70;;
33104;SDS011;19476;51.448;6.674;2023-05-16T13:54:21;1.42;;;0.52;;
33104;SDS011;19476;51.448;6.674;2023-05-16T13:56:46;6.78;;;0.90;;
33104;SDS011;19476;51.448;6.674;2023-05-16T13:59:12;3.13;;;0.80;;
33104;SDS011;19476;51.448;6.674;2023-05-16T14:01:38;2.28;;;0.50;;
33104;SDS011;19476;51.448;6.674;2023-05-16T14:04:04;1.83;;;0.70;;
33104;SDS011;19476;51.448;6.674;2023-05-16T14:06:30;1.27;;;0.77;;
33104;SDS011;19476;51.448;6.674;2023-05-16T14:08:57;2.53;;;0.80;;
33104;SDS011;19476;51.448;6.674;2023-05-16T14:11:23;3.17;;;0.80;;
33104;SDS011;19476;51.448;6.674;2023-05-16T14:13:54;2.15;;;0.82;;
33104;SDS011;19476;51.448;6.674;2023-05-16T14:16:20;3.50;;;1.10;;
33104;SDS011;19476;51.448;6.674;2023-05-16T14:18:46;3.05;;;1.20;;
33104;SDS011;19476;51.448;6.674;2023-05-16T14:21:12;2.70;;;0.82;;
33104;SDS011;19476;51.448;6.674;2023-05-16T14:23:38;2.55;;;0.90;;
33104;SDS011;19476;51.448;6.674;2023-05-16T14:26:04;3.25;;;0.85;;
33104;SDS011;19476;51.448;6.674;2023-05-16T14:28:31;3.30;;;1.02;;
33104;SDS011;19476;51.448;6.674;2023-05-16T14:30:57;2.45;;;1.00;;
33104;SDS011;19476;51.448;6.674;2023-05-16T14:33:26;2.53;;;0.90;;
33104;SDS011;19476;51.448;6.674;2023-05-16T14:35:52;2.00;;;0.90;;
33104;SDS011;19476;51.448;6.674;2023-05-16T14:38:27;2.03;;;0.98;;
33104;SDS011;19476;51.448;6.674;2023-05-16T14:40:54;4.68;;;0.60;;
33104;SDS011;19476;51.448;6.674;2023-05-16T14:43:20;3.45;;;0.88;;
33104;SDS011;19476;51.448;6.674;2023-05-16T14:45:46;3.38;;;0.98;;
33104;SDS011;19476;51.448;6.674;2023-05-16T14:48:12;2.70;;;0.80;;
33104;SDS011;19476;51.448;6.674;2023-05-16T14:50:38;2.58;;;1.08;;
33104;SDS011;19476;51.448;6.674;2023-05-16T14:53:04;3.53;;;1.17;;
33104;SDS011;19476;51.448;6.674;2023-05-16T14:55:30;1.85;;;0.73;;
33104;SDS011;19476;51.448;6.674;2023-05-16T14:57:58;1.92;;;0.82;;
33104;SDS011;19476;51.448;6.674;2023-05-16T15:00:24;3.75;;;0.95;;
33104;SDS011;19476;51.448;6.674;2023-05-16T15:02:51;2.30;;;0.82;;
33104;SDS011;19476;51.448;6.674;2023-05-16T15:05:17;2.67;;;0.70;;
33104;SDS011;19476;51.448;6.674;2023-05-16T15:07:43;1.55;;;0.70;;
33104;SDS011;19476;51.448;6.674;2023-05-16T15:10:09;2.42;;;0.70;;
33104;SDS011;19476;51.448;6.674;2023-05-16T15:12:35;2.58;;;0.85;;
33104;SDS011;19476;51.448;6.674;2023-05-16T15:15:04;2.57;;;0.70;;
33104;SDS011;19476;51.448;6.674;2023-05-16T15:17:31;4.20;;;1.00;;
33104;SDS011;19476;51.448;6.674;2023-05-16T15:19:57;1.90;;;0.75;;
33104;SDS011;19476;51.448;6.674;2023-05-16T15:22:23;1.17;;;0.52;;
33104;SDS011;19476;51.448;6.674;2023-05-16T15:24:49;2.65;;;0.70;;
33104;SDS011;19476;51.448;6.674;2023-05-16T15:27:15;3.20;;;0.70;;
33104;SDS011;19476;51.448;6.674;2023-05-16T15:29:40;3.55;;;0.75;;